Time;durP1;ratioP1;P1;durP2;ratioP2;P2;SDS_P1;SDS_P2;PMS_P1;PMS_P2;Temp;Humidity;BMP_temperature;BMP_pressure;BME280_temperature;BME280_humidity;BME280_pressure;Samples;Min_cycle;Max_cycle;Signal;HPM_P1;HPM_P2
2022/05/15 00:00:53;;;;;;;16.52;6.28;;;13.90;99.90;;;;;;4694049;28;10000383;-74
2022/05/15 00:03:22;;;;;;;17.88;6.55;;;13.80;99.90;;;;;;5045694;28;20099;-75
2022/05/15 00:05:59;;;;;;;18.33;6.43;;;13.90;99.90;;;;;;5046130;28;20031;-74
2022/05/15 00:08:29;;;;;;;17.67;5.93;;;13.90;99.90;;;;;;5043257;28;20396;-74
2022/05/15 00:10:56;;;;;;;15.13;6.32;;;13.90;99.90;;;;;;5047972;28;20115;-74
2022/05/15 00:13:23;;;;;;;13.40;6.20;;;13.90;99.90;;;;;;5055721;28;20021;-74
2022/05/15 00:15:50;;;;;;;10.27;5.70;;;13.80;99.90;;;;;;5044839;28;20025;-74
2022/05/15 00:18:17;;;;;;;14.05;5.80;;;13.70;99.90;;;;;;5045024;28;20039;-74
2022/05/15 00:20:43;;;;;;;13.90;5.90;;;13.60;99.90;;;;;;5042634;28;20048;-74
2022/05/15 00:23:10;;;;;;;18.50;6.28;;;13.50;99.90;;;;;;5043961;28;20024;-74
2022/05/15 00:25:37;;;;;;;17.27;6.20;;;13.40;99.90;;;;;;5044651;28;20113;-74
2022/05/15 00:28:03;;;;;;;14.45;5.93;;;13.30;99.90;;;;;;5045862;28;20044;-74
2022/05/15 00:30:29;;;;;;;13.02;6.18;;;13.30;99.90;;;;;;5043530;28;20021;-74
2022/05/15 00:32:55;;;;;;;13.65;6.15;;;13.30;99.90;;;;;;5048895;28;20558;-74
2022/05/15 00:35:21;;;;;;;15.98;6.55;;;13.20;99.90;;;;;;5046489;28;20036;-74
2022/05/15 00:37:47;;;;;;;17.23;6.70;;;13.10;99.90;;;;;;5052451;28;20033;-74
2022/05/15 00:40:16;;;;;;;15.38;6.18;;;13.10;99.90;;;;;;5040924;28;20032;-75
2022/05/15 00:42:43;;;;;;;17.48;7.10;;;13.10;99.90;;;;;;5043810;28;20029;-74
2022/05/15 00:45:09;;;;;;;17.77;6.97;;;13.10;99.90;;;;;;5044067;28;20561;-75
2022/05/15 00:47:35;;;;;;;20.92;8.18;;;13.10;99.90;;;;;;5039924;28;20398;-75
2022/05/15 00:50:05;;;;;;;18.63;7.90;;;13.00;99.90;;;;;;5037900;28;20047;-74
2022/05/15 00:52:34;;;;;;;17.30;7.70;;;12.90;99.90;;;;;;5046235;28;20029;-74
2022/05/15 00:55:15;;;;;;;20.50;7.65;;;12.90;99.90;;;;;;5041412;28;20029;-74
2022/05/15 00:57:47;;;;;;;17.55;8.10;;;12.80;99.90;;;;;;5044424;28;20119;-74
2022/05/15 01:00:28;;;;;;;16.80;8.25;;;12.80;99.90;;;;;;5037705;28;20029;-75
2022/05/15 01:03:12;;;;;;;20.10;8.27;;;12.70;99.90;;;;;;5045076;28;20116;-75
2022/05/15 01:05:42;;;;;;;17.95;7.80;;;12.70;99.90;;;;;;5043841;28;20082;-75
2022/05/15 01:08:08;;;;;;;14.80;7.15;;;12.60;99.90;;;;;;5042867;28;20036;-74
2022/05/15 01:10:45;;;;;;;17.48;8.18;;;12.60;99.90;;;;;;5045844;28;20056;-75
2022/05/15 01:13:13;;;;;;;22.33;8.18;;;12.50;99.90;;;;;;5046597;28;20074;-75
2022/05/15 01:15:39;;;;;;;18.35;8.52;;;12.50;99.90;;;;;;5044579;28;20056;-74
2022/05/15 01:18:06;;;;;;;17.00;8.30;;;12.40;99.90;;;;;;5043524;28;20068;-75
2022/05/15 01:20:32;;;;;;;20.52;9.00;;;12.30;99.90;;;;;;5045459;28;20052;-74
2022/05/15 01:22:59;;;;;;;21.38;8.30;;;12.30;99.90;;;;;;5047740;28;20458;-74
2022/05/15 01:25:31;;;;;;;24.60;10.13;;;12.30;99.90;;;;;;5044352;28;20060;-74
2022/05/15 01:28:13;;;;;;;24.57;9.73;;;12.20;99.90;;;;;;5043374;28;20036;-74
2022/05/15 01:30:42;;;;;;;26.23;11.68;;;12.20;99.90;;;;;;5043416;28;20356;-74
2022/05/15 01:33:08;;;;;;;22.33;10.85;;;12.20;99.90;;;;;;5043604;28;20104;-74
2022/05/15 01:35:34;;;;;;;25.80;12.13;;;12.20;99.90;;;;;;5038394;28;20048;-74
2022/05/15 01:37:59;;;;;;;27.10;12.77;;;12.20;99.90;;;;;;5040267;28;20478;-74
2022/05/15 01:40:25;;;;;;;24.77;12.20;;;12.20;99.90;;;;;;5037238;28;20071;-74
2022/05/15 01:42:51;;;;;;;27.27;13.18;;;12.20;99.90;;;;;;5040352;28;20443;-74
2022/05/15 01:45:16;;;;;;;25.63;12.98;;;12.20;99.90;;;;;;5048672;28;20033;-74
2022/05/15 01:47:42;;;;;;;22.83;12.57;;;12.20;99.90;;;;;;5043221;28;20477;-75
2022/05/15 01:50:10;;;;;;;28.50;13.32;;;12.10;99.90;;;;;;5043489;28;20108;-74
2022/05/15 01:52:36;;;;;;;29.98;13.88;;;12.10;99.90;;;;;;5043032;28;20056;-75
2022/05/15 01:55:03;;;;;;;26.60;13.35;;;12.10;99.90;;;;;;5041369;28;20510;-74
2022/05/15 01:57:28;;;;;;;26.65;13.70;;;12.10;99.90;;;;;;5041396;28;20037;-75
2022/05/15 01:59:54;;;;;;;31.55;14.05;;;12.10;99.90;;;;;;5041447;28;20091;-74
2022/05/15 02:02:20;;;;;;;28.52;14.30;;;12.00;99.90;;;;;;5057341;28;20542;-75
2022/05/15 02:04:45;;;;;;;30.63;14.38;;;12.00;99.90;;;;;;5042973;28;20033;-75
2022/05/15 02:07:11;;;;;;;32.15;13.32;;;12.00;99.90;;;;;;5043829;28;20477;-75
2022/05/15 02:09:37;;;;;;;31.67;12.93;;;12.00;99.90;;;;;;5035232;28;20048;-75
2022/05/15 02:12:02;;;;;;;26.48;11.88;;;12.00;99.90;;;;;;5052817;28;20024;-74
2022/05/15 02:14:28;;;;;;;30.67;12.60;;;12.10;99.90;;;;;;5044576;28;20082;-75
2022/05/15 02:16:55;;;;;;;34.75;12.45;;;12.10;99.90;;;;;;5044934;28;20111;-75
2022/05/15 02:19:20;;;;;;;27.80;11.50;;;12.10;99.90;;;;;;5037024;28;20645;-75
2022/05/15 02:21:47;;;;;;;29.58;11.75;;;12.10;99.90;;;;;;5040106;28;20047;-74
2022/05/15 02:24:14;;;;;;;31.85;11.45;;;12.10;99.90;;;;;;5038771;28;20052;-75
2022/05/15 02:26:40;;;;;;;28.90;12.18;;;12.10;99.90;;;;;;5043750;28;20036;-75
2022/05/15 02:29:06;;;;;;;21.25;11.30;;;12.10;99.90;;;;;;5042694;28;20029;-75
2022/05/15 02:31:32;;;;;;;25.10;11.15;;;12.00;99.90;;;;;;5034916;28;20028;-75
2022/05/15 02:33:58;;;;;;;25.20;11.65;;;12.00;99.90;;;;;;5039159;28;20685;-74
2022/05/15 02:36:25;;;;;;;24.92;9.98;;;12.00;99.90;;;;;;5053867;28;20052;-74
2022/05/15 02:38:50;;;;;;;29.52;11.35;;;12.00;99.90;;;;;;5039156;28;20021;-74
2022/05/15 02:41:16;;;;;;;25.65;10.57;;;12.00;99.90;;;;;;5039673;28;20099;-74
2022/05/15 02:43:42;;;;;;;21.63;10.32;;;12.00;99.90;;;;;;5038068;28;20023;-74
2022/05/15 02:46:08;;;;;;;22.63;10.70;;;12.00;99.90;;;;;;5045691;28;20044;-74
2022/05/15 02:51:18;;;;;;;26.95;10.63;;;12.10;99.90;;;;;;5033573;28;20075;-74
2022/05/15 02:53:45;;;;;;;27.55;10.55;;;12.00;99.90;;;;;;5043869;28;20048;-74
2022/05/15 02:56:12;;;;;;;25.02;10.35;;;12.10;99.90;;;;;;5040017;28;20025;-74
2022/05/15 02:58:38;;;;;;;22.92;9.77;;;12.10;99.90;;;;;;5039131;28;20410;-74
2022/05/15 03:01:04;;;;;;;22.23;8.43;;;12.10;99.90;;;;;;5040644;28;20119;-74
2022/05/15 03:03:30;;;;;;;15.43;7.65;;;12.00;99.90;;;;;;5044144;28;20067;-75
2022/05/15 03:05:56;;;;;;;12.75;6.78;;;11.90;99.90;;;;;;5048283;28;20060;-74
2022/05/15 03:08:22;;;;;;;11.90;6.72;;;11.70;99.90;;;;;;5051782;28;20457;-74
2022/05/15 03:10:48;;;;;;;25.40;10.20;;;11.60;99.90;;;;;;5043652;28;20382;-75
2022/05/15 03:13:13;;;;;;;27.10;10.65;;;11.50;99.90;;;;;;5046464;28;20027;-75
2022/05/15 03:15:39;;;;;;;25.75;10.32;;;11.60;99.90;;;;;;5050156;28;20028;-75
2022/05/15 03:18:05;;;;;;;25.45;10.68;;;11.60;99.90;;;;;;5047489;28;20029;-75
2022/05/15 03:20:31;;;;;;;27.50;10.27;;;11.60;99.90;;;;;;5037559;28;20673;-75
2022/05/15 03:22:58;;;;;;;29.05;10.35;;;11.60;99.90;;;;;;5041552;28;20033;-75
2022/05/15 03:25:27;;;;;;;21.98;10.00;;;11.60;99.90;;;;;;5051753;28;20150;-75
2022/05/15 03:27:54;;;;;;;29.73;11.45;;;11.60;99.90;;;;;;5045818;28;20455;-75
2022/05/15 03:30:20;;;;;;;27.73;11.02;;;11.70;99.90;;;;;;5044345;28;20036;-75
2022/05/15 03:32:46;;;;;;;27.20;12.55;;;11.70;99.90;;;;;;5047210;28;20033;-75
2022/05/15 03:35:14;;;;;;;26.75;12.73;;;11.70;99.90;;;;;;5048064;28;20074;-74
2022/05/15 03:37:40;;;;;;;21.27;10.73;;;11.70;99.90;;;;;;5054246;28;20032;-75
2022/05/15 03:40:07;;;;;;;28.08;11.00;;;11.70;99.90;;;;;;5043932;28;20036;-75
2022/05/15 03:42:32;;;;;;;26.42;10.35;;;11.70;99.90;;;;;;5053964;28;20051;-75
2022/05/15 03:44:58;;;;;;;22.80;10.43;;;11.70;99.90;;;;;;5047610;28;20473;-75
2022/05/15 03:47:24;;;;;;;20.10;10.45;;;11.70;99.90;;;;;;5048922;28;20040;-74
2022/05/15 03:49:50;;;;;;;21.00;10.73;;;11.70;99.90;;;;;;5040745;28;20090;-74
2022/05/15 03:52:16;;;;;;;24.30;11.43;;;11.70;99.90;;;;;;5056938;28;20021;-74
2022/05/15 03:54:42;;;;;;;17.35;9.65;;;11.60;99.90;;;;;;5044008;28;20087;-74
2022/05/15 03:57:08;;;;;;;13.00;8.90;;;11.40;99.90;;;;;;5055453;28;20051;-74
2022/05/15 03:59:40;;;;;;;16.65;8.93;;;11.30;99.90;;;;;;5047864;28;20033;-74
2022/05/15 04:02:07;;;;;;;19.00;10.05;;;11.20;99.90;;;;;;5040329;28;20119;-74
2022/05/15 04:04:34;;;;;;;16.42;8.55;;;11.20;99.90;;;;;;5046296;28;20094;-74
2022/05/15 04:07:01;;;;;;;28.10;11.23;;;11.10;99.90;;;;;;5044568;28;20578;-74
2022/05/15 04:09:28;;;;;;;26.40;12.05;;;11.20;99.90;;;;;;5038909;28;20037;-75
2022/05/15 04:11:54;;;;;;;25.70;12.52;;;11.30;99.90;;;;;;5053283;28;20045;-74
2022/05/15 04:14:19;;;;;;;30.30;13.85;;;11.40;99.90;;;;;;5045094;28;20063;-74
2022/05/15 04:16:45;;;;;;;25.42;12.65;;;11.40;99.90;;;;;;5041075;28;20381;-75
2022/05/15 04:19:11;;;;;;;25.05;12.32;;;11.50;99.90;;;;;;5044269;28;20033;-74
2022/05/15 04:21:37;;;;;;;28.63;12.35;;;11.50;99.90;;;;;;5046383;28;20083;-75
2022/05/15 04:24:14;;;;;;;23.13;12.45;;;11.60;99.90;;;;;;5046952;28;20484;-74
2022/05/15 04:26:41;;;;;;;25.10;10.75;;;11.70;99.90;;;;;;5038158;28;20430;-75
2022/05/15 04:29:07;;;;;;;23.95;12.27;;;12.00;99.90;;;;;;5039627;28;20021;-75
2022/05/15 04:31:36;;;;;;;20.92;12.07;;;12.90;99.90;;;;;;5044474;28;20029;-75
2022/05/15 04:34:03;;;;;;;18.80;11.43;;;14.10;99.90;;;;;;5044218;28;20036;-75
2022/05/15 04:36:29;;;;;;;23.33;12.75;;;14.70;99.90;;;;;;5038884;28;20032;-75
2022/05/15 04:38:55;;;;;;;22.15;11.65;;;14.40;99.90;;;;;;5035379;28;20452;-75
2022/05/15 04:41:21;;;;;;;22.00;11.80;;;14.00;99.90;;;;;;5041842;28;20031;-75
2022/05/15 04:43:47;;;;;;;16.23;11.10;;;13.60;99.90;;;;;;5042298;28;20035;-74
2022/05/15 04:46:12;;;;;;;18.42;11.40;;;13.30;99.90;;;;;;5049560;28;20382;-76
2022/05/15 04:48:38;;;;;;;23.30;12.23;;;13.00;99.90;;;;;;5039609;28;20037;-77
2022/05/15 04:51:04;;;;;;;23.70;11.82;;;12.90;99.90;;;;;;5045070;28;20029;-77
2022/05/15 04:53:33;;;;;;;23.10;11.60;;;12.80;99.90;;;;;;5046238;28;20811;-77
2022/05/15 04:56:00;;;;;;;30.85;13.50;;;12.80;99.90;;;;;;5045768;28;20112;-77
2022/05/15 04:58:26;;;;;;;27.08;12.63;;;12.80;99.90;;;;;;5044194;28;20067;-76
2022/05/15 05:00:52;;;;;;;23.85;11.63;;;12.90;99.90;;;;;;5051335;28;20036;-73
2022/05/15 05:03:17;;;;;;;22.02;10.57;;;12.90;99.90;;;;;;5049222;28;20404;-77
2022/05/15 05:05:43;;;;;;;22.40;11.07;;;12.90;99.90;;;;;;5045167;28;20029;-77
2022/05/15 05:08:10;;;;;;;20.98;11.10;;;13.00;99.90;;;;;;5045956;28;20029;-77
2022/05/15 05:10:36;;;;;;;22.08;11.63;;;13.00;99.90;;;;;;5047781;28;20025;-77
2022/05/15 05:13:03;;;;;;;25.50;11.23;;;13.00;99.90;;;;;;5045545;28;20031;-77
2022/05/15 05:15:28;;;;;;;26.92;12.55;;;13.00;99.90;;;;;;5042406;28;20041;-77
2022/05/15 05:17:55;;;;;;;23.25;11.45;;;13.00;99.90;;;;;;5037806;28;20036;-77
2022/05/15 05:20:22;;;;;;;24.77;10.10;;;13.00;99.90;;;;;;5045136;28;20036;-76
2022/05/15 05:22:47;;;;;;;22.73;10.90;;;13.00;99.90;;;;;;5049525;28;20044;-77
2022/05/15 05:25:13;;;;;;;22.08;10.20;;;12.90;99.90;;;;;;5061304;28;20044;-77
2022/05/15 05:27:41;;;;;;;20.95;10.18;;;13.00;99.90;;;;;;5044875;28;20529;-77
2022/05/15 05:30:12;;;;;;;23.92;10.85;;;13.00;99.90;;;;;;5038909;28;20025;-77
2022/05/15 05:32:38;;;;;;;25.42;10.63;;;13.00;99.90;;;;;;5041898;28;20021;-77
2022/05/15 05:35:04;;;;;;;19.88;10.35;;;13.00;99.90;;;;;;5046409;28;20443;-77
2022/05/15 05:37:30;;;;;;;23.02;10.15;;;13.10;99.90;;;;;;5049530;28;20116;-77
2022/05/15 05:39:56;;;;;;;21.77;10.20;;;13.20;99.90;;;;;;5043929;28;20029;-77
2022/05/15 05:42:21;;;;;;;22.38;10.45;;;13.20;99.90;;;;;;5044624;28;20044;-77
2022/05/15 05:44:47;;;;;;;20.23;10.43;;;13.20;99.90;;;;;;5038234;28;20029;-77
2022/05/15 05:47:13;;;;;;;22.65;9.98;;;13.20;99.90;;;;;;5042627;28;20116;-77
2022/05/15 05:49:38;;;;;;;25.52;10.35;;;13.30;99.90;;;;;;5045016;28;20389;-77
2022/05/15 05:52:04;;;;;;;19.98;9.80;;;13.40;99.90;;;;;;5043660;28;20062;-77
2022/05/15 05:54:30;;;;;;;22.98;9.70;;;13.40;99.90;;;;;;5037145;28;20417;-77
2022/05/15 05:56:57;;;;;;;21.38;9.63;;;13.50;99.90;;;;;;5047532;28;20058;-77
2022/05/15 05:59:23;;;;;;;22.77;10.77;;;13.40;99.90;;;;;;5039546;28;20124;-77
2022/05/15 06:01:48;;;;;;;18.88;10.23;;;13.40;99.90;;;;;;5046244;28;20031;-77
2022/05/15 06:06:58;;;;;;;25.08;10.45;;;13.40;99.90;;;;;;5046855;28;20120;-75
2022/05/15 06:09:24;;;;;;;22.50;10.60;;;13.40;99.90;;;;;;5042469;28;20115;-75
2022/05/15 06:11:49;;;;;;;23.30;11.00;;;13.40;99.90;;;;;;5045674;28;20376;-76
2022/05/15 06:14:15;;;;;;;26.33;10.52;;;13.40;99.90;;;;;;5043826;28;20067;-75
2022/05/15 06:16:41;;;;;;;21.55;10.70;;;13.40;99.90;;;;;;5044416;28;20021;-75
2022/05/15 06:19:08;;;;;;;19.20;10.52;;;13.40;99.90;;;;;;5032856;28;20143;-75
2022/05/15 06:21:33;;;;;;;17.05;9.63;;;13.40;99.90;;;;;;5039514;28;20021;-75
2022/05/15 06:23:59;;;;;;;18.90;9.93;;;13.40;99.90;;;;;;5043687;28;20044;-75
2022/05/15 06:26:25;;;;;;;22.17;10.23;;;13.50;99.90;;;;;;5040513;28;20033;-75
2022/05/15 06:28:50;;;;;;;27.05;11.40;;;13.60;99.90;;;;;;5038381;28;20116;-75
2022/05/15 06:31:16;;;;;;;21.33;10.23;;;13.60;99.90;;;;;;5042302;28;20029;-75
2022/05/15 06:33:41;;;;;;;21.00;10.38;;;13.70;99.90;;;;;;5052374;28;20060;-75
2022/05/15 06:36:07;;;;;;;24.00;10.23;;;13.80;99.90;;;;;;5044243;28;20037;-75
2022/05/15 06:38:33;;;;;;;21.55;9.68;;;13.90;99.90;;;;;;5041010;28;20029;-75
2022/05/15 06:40:58;;;;;;;28.95;10.32;;;14.10;99.90;;;;;;5041038;28;20057;-75
2022/05/15 06:43:24;;;;;;;22.92;9.80;;;14.30;99.90;;;;;;5037245;28;20063;-75
2022/05/15 06:45:49;;;;;;;18.90;8.82;;;14.60;99.90;;;;;;5041299;28;20029;-75
2022/05/15 06:48:16;;;;;;;23.33;9.25;;;14.90;99.90;;;;;;5040274;28;20036;-75
2022/05/15 06:50:42;;;;;;;17.95;8.27;;;15.20;99.90;;;;;;5039247;28;20460;-75
2022/05/15 06:53:12;;;;;;;21.67;8.93;;;15.40;99.90;;;;;;5042211;28;20497;-75
2022/05/15 06:57:28;;;;;;;18.42;8.43;;;15.70;99.90;;;;;;5044782;28;20154;-75
2022/05/15 06:58:23;;;;;;;20.27;8.82;;;15.90;99.90;;;;;;5040236;28;20412;-75
2022/05/15 07:00:49;;;;;;;19.85;7.55;;;16.10;99.90;;;;;;5039823;28;20960;-75
2022/05/15 07:03:15;;;;;;;21.58;8.07;;;16.30;99.90;;;;;;5039026;28;20214;-76
2022/05/15 07:05:41;;;;;;;19.33;7.53;;;16.60;99.90;;;;;;5040413;28;20036;-75
2022/05/15 07:08:08;;;;;;;26.20;7.80;;;16.60;99.90;;;;;;5043452;28;20033;-72
2022/05/15 07:10:34;;;;;;;18.23;7.40;;;16.70;99.90;;;;;;5043900;28;20032;-72
2022/05/15 07:12:59;;;;;;;20.35;7.32;;;16.90;99.90;;;;;;5042336;28;20524;-73
2022/05/15 07:15:25;;;;;;;21.45;6.88;;;17.10;99.90;;;;;;5036493;28;20040;-73
2022/05/15 07:17:51;;;;;;;19.73;7.20;;;17.20;99.90;;;;;;5039697;28;20029;-72
2022/05/15 07:20:16;;;;;;;23.10;6.80;;;17.40;99.90;;;;;;5040613;28;20069;-75
2022/05/15 07:22:42;;;;;;;19.67;6.97;;;17.70;99.90;;;;;;5037742;28;20039;-73
2022/05/15 07:25:08;;;;;;;20.38;5.70;;;17.90;99.90;;;;;;5037026;28;20043;-71
2022/05/15 07:27:33;;;;;;;18.02;5.80;;;18.00;99.90;;;;;;5022802;28;20084;-72
2022/05/15 07:29:59;;;;;;;22.55;6.15;;;18.10;99.90;;;;;;5039707;28;20017;-72
2022/05/15 07:32:24;;;;;;;18.33;5.95;;;18.20;99.90;;;;;;5037926;28;20025;-71
2022/05/15 07:34:50;;;;;;;17.33;5.82;;;18.40;99.90;;;;;;5032194;28;20021;-71
2022/05/15 07:37:17;;;;;;;15.63;4.90;;;18.40;99.90;;;;;;5043655;28;20028;-72
2022/05/15 07:39:42;;;;;;;14.48;5.18;;;18.40;99.90;;;;;;5037601;28;20112;-71
2022/05/15 07:42:08;;;;;;;21.83;5.55;;;18.50;99.90;;;;;;5040893;28;20143;-71
2022/05/15 07:44:34;;;;;;;13.50;5.05;;;18.60;99.90;;;;;;5040059;28;20033;-74
2022/05/15 07:47:00;;;;;;;14.18;5.10;;;18.90;99.90;;;;;;5041575;28;20029;-75
2022/05/15 07:52:29;;;;;;;16.83;5.18;;;;;;;;;;5027905;28;20060;-74
2022/05/15 07:54:55;;;;;;;17.40;5.20;;;;;;;;;;5048400;28;20033;-74
2022/05/15 07:57:21;;;;;;;12.25;4.30;;;;;;;;;;5047475;28;20059;-73
2022/05/15 07:59:47;;;;;;;14.75;4.47;;;;;;;;;;5048008;28;20088;-74
2022/05/15 08:02:13;;;;;;;25.75;5.30;;;;;;;;;;5045146;28;20029;-73
2022/05/15 08:10:10;;;;;;;13.55;3.95;;;;;;;;;;5027145;28;20055;-74
2022/05/15 08:12:36;;;;;;;14.40;4.32;;;;;;;;;;5048118;28;20120;-73
2022/05/15 08:15:04;;;;;;;17.00;4.32;;;;;;;;;;5049654;28;20112;-73
2022/05/15 08:17:30;;;;;;;11.98;3.83;;;;;;;;;;5049032;28;20055;-74
2022/05/15 08:25:26;;;;;;;20.55;4.55;;;;;;;;;;5039103;28;20548;-74
2022/05/15 08:27:52;;;;;;;18.65;4.15;;;;;;;;;;5029819;28;20032;-74
2022/05/15 08:30:19;;;;;;;18.63;4.72;;;;;;;;;;5045356;28;20074;-73
2022/05/15 08:32:45;;;;;;;16.38;4.40;;;;;;;;;;5048796;28;20056;-73
2022/05/15 08:35:12;;;;;;;13.00;3.70;;;;;;;;;;5048421;28;20094;-73
2022/05/15 08:37:40;;;;;;;15.10;4.25;;;;;;;;;;5047748;28;20040;-74
2022/05/15 08:40:06;;;;;;;14.18;3.85;;;;;;;;;;5045325;28;20033;-73
2022/05/15 08:42:39;;;;;;;10.10;3.38;;;;;;;;;;5037826;28;20040;-74
2022/05/15 08:45:09;;;;;;;13.80;4.15;;;;;;;;;;5049093;28;20033;-75
2022/05/15 08:47:44;;;;;;;15.18;4.25;;;;;;;;;;5032859;28;20042;-73
2022/05/15 08:50:10;;;;;;;11.70;4.00;;;;;;;;;;5027690;28;20028;-73
2022/05/15 08:52:53;;;;;;;11.70;3.42;;;;;;;;;;5034161;28;20730;-73
2022/05/15 08:55:22;;;;;;;18.13;4.15;;;;;;;;;;5048849;28;20480;-73
2022/05/15 08:57:51;;;;;;;17.60;4.15;;;;;;;;;;5048905;28;20033;-73
2022/05/15 09:00:20;;;;;;;11.13;3.38;;;;;;;;;;5036769;28;20035;-73
2022/05/15 09:02:47;;;;;;;16.58;3.90;;;;;;;;;;5047133;28;20664;-73
2022/05/15 09:05:13;;;;;;;13.40;3.60;;;;;;;;;;5045421;28;20025;-73
2022/05/15 09:07:46;;;;;;;9.80;3.03;;;;;;;;;;5047723;28;20032;-73
2022/05/15 09:10:12;;;;;;;10.25;3.20;;;;;;;;;;5046625;28;20021;-73
2022/05/15 09:12:47;;;;;;;14.50;3.35;;;;;;;;;;5048713;28;20023;-73
2022/05/15 09:15:18;;;;;;;10.90;3.10;;;;;;;;;;5044354;28;20032;-74
2022/05/15 09:17:50;;;;;;;10.40;3.50;;;22.10;85.20;;;;;;5036940;28;20102;-73
2022/05/15 09:20:19;;;;;;;13.10;3.45;;;22.10;84.80;;;;;;5044351;28;20578;-73
2022/05/15 09:22:59;;;;;;;10.05;3.00;;;21.90;86.40;;;;;;5048211;28;20377;-74
2022/05/15 09:25:25;;;;;;;14.23;3.47;;;21.90;88.00;;;;;;5043236;28;20052;-73
2022/05/15 09:28:10;;;;;;;10.63;3.10;;;21.90;87.40;;;;;;5048484;28;20112;-73
2022/05/15 09:30:43;;;;;;;13.38;5.53;;;21.70;85.00;;;;;;5044599;28;20393;-74
2022/05/15 09:33:24;;;;;;;;;;;21.60;90.30;;;;;;5043763;28;20017;-73
2022/05/15 09:35:50;;;;;;;13.55;3.17;;;21.60;86.80;;;;;;5047976;28;20384;-73
2022/05/15 09:38:27;;;;;;;11.15;2.83;;;21.70;86.30;;;;;;5046049;28;20064;-74
2022/05/15 09:43:51;;;;;;;13.45;3.50;;;21.60;88.60;;;;;;5047974;28;20634;-74
2022/05/15 09:46:19;;;;;;;12.60;3.33;;;21.70;87.20;;;;;;5046319;28;20044;-73
2022/05/15 09:48:56;;;;;;;10.75;3.25;;;21.60;85.50;;;;;;5045590;28;20512;-74
2022/05/15 09:51:57;;;;;;;10.23;2.95;;;21.80;83.50;;;;;;5032985;28;20044;-74
2022/05/15 09:54:30;;;;;;;14.10;3.92;;;22.10;82.70;;;;;;5027317;28;20044;-74
2022/05/15 09:57:08;;;;;;;11.95;3.30;;;22.20;80.40;;;;;;5027372;28;20025;-74
2022/05/15 09:59:34;;;;;;;14.25;3.83;;;22.10;80.70;;;;;;5026300;28;20033;-74
2022/05/15 10:02:00;;;;;;;10.23;3.05;;;21.90;81.60;;;;;;5044116;28;20211;-73
2022/05/15 10:04:37;;;;;;;12.02;3.38;;;21.90;83.50;;;;;;5045818;28;20500;-73
2022/05/15 10:07:07;;;;;;;10.60;3.17;;;22.10;81.00;;;;;;5038426;28;20026;-73
2022/05/15 10:09:38;;;;;;;10.25;2.80;;;22.20;79.80;;;;;;5040972;28;20071;-73
2022/05/15 10:12:13;;;;;;;12.15;3.58;;;22.40;79.50;;;;;;5047446;28;20024;-73
2022/05/15 10:14:51;;;;;;;14.05;3.08;;;22.50;78.80;;;;;;5046493;28;20554;-73
2022/05/15 10:17:19;;;;;;;8.68;3.08;;;22.70;76.30;;;;;;5046295;28;20067;-73
2022/05/15 10:20:04;;;;;;;8.73;2.85;;;22.80;77.70;;;;;;5044698;28;20033;-73
2022/05/15 10:22:39;;;;;;;12.05;3.28;;;22.90;75.80;;;;;;5037042;28;20021;-73
2022/05/15 10:25:16;;;;;;;7.68;2.80;;;23.00;76.00;;;;;;5044769;28;20098;-74
2022/05/15 10:27:49;;;;;;;11.48;3.35;;;22.90;74.00;;;;;;5047892;28;20040;-73
2022/05/15 10:30:21;;;;;;;10.25;2.80;;;22.90;75.50;;;;;;5045389;28;20029;-73
2022/05/15 10:32:54;;;;;;;10.23;3.20;;;23.00;75.60;;;;;;5045839;28;20439;-73
2022/05/15 10:35:39;;;;;;;11.43;3.08;;;23.20;75.00;;;;;;5047041;28;20031;-73
2022/05/15 10:38:14;;;;;;;11.93;3.45;;;23.00;78.70;;;;;;5046434;28;20032;-73
2022/05/15 10:40:48;;;;;;;8.90;2.83;;;22.90;76.90;;;;;;5044261;28;20021;-73
2022/05/15 10:43:20;;;;;;;10.57;2.75;;;22.80;73.90;;;;;;5045439;28;20064;-73
2022/05/15 10:46:09;;;;;;;8.90;3.03;;;22.90;73.80;;;;;;5047053;28;20033;-74
2022/05/15 10:49:00;;;;;;;7.55;2.80;;;23.10;74.00;;;;;;5044572;28;20038;-73
2022/05/15 10:52:07;;;;;;;9.07;2.83;;;23.20;71.60;;;;;;5043130;28;20064;-73
2022/05/15 10:57:58;;;;;;;7.05;2.55;;;23.30;70.30;;;;;;5029518;28;20404;-73
2022/05/15 11:00:39;;;;;;;10.00;2.63;;;23.40;71.50;;;;;;5045445;28;20033;-73
2022/05/15 11:03:50;;;;;;;12.55;3.00;;;23.70;71.40;;;;;;5046459;28;20035;-74
2022/05/15 11:06:31;;;;;;;7.00;2.10;;;23.70;67.60;;;;;;5046978;28;20029;-73
2022/05/15 11:09:22;;;;;;;10.30;2.75;;;23.70;65.90;;;;;;5044260;28;20029;-73
2022/05/15 11:12:06;;;;;;;12.80;2.85;;;23.70;66.70;;;;;;5044588;28;20036;-73
2022/05/15 11:14:47;;;;;;;5.55;2.20;;;23.80;65.50;;;;;;5029473;28;20049;-73
2022/05/15 11:17:54;;;;;;;9.45;2.40;;;23.80;64.00;;;;;;5046563;28;20432;-73
2022/05/15 11:20:25;;;;;;;6.93;2.28;;;23.90;64.50;;;;;;5044887;28;20108;-73
2022/05/15 11:22:57;;;;;;;8.60;2.22;;;24.00;65.30;;;;;;5043317;28;20029;-73
2022/05/15 11:25:38;;;;;;;7.25;2.17;;;24.20;66.10;;;;;;5041010;28;20045;-73
2022/05/15 11:28:30;;;;;;;6.97;2.60;;;24.50;65.20;;;;;;5048367;28;20075;-73
2022/05/15 11:31:06;;;;;;;10.02;2.67;;;24.60;66.80;;;;;;4995190;28;20060;-73
2022/05/15 11:33:43;;;;;;;9.70;2.35;;;24.60;64.20;;;;;;5046433;28;20029;-73
2022/05/15 11:36:15;;;;;;;6.85;2.13;;;24.60;65.90;;;;;;5050447;28;20025;-73
2022/05/15 11:39:02;;;;;;;11.57;2.92;;;24.60;64.20;;;;;;5047227;28;20021;-74
2022/05/15 11:41:36;;;;;;;8.77;2.78;;;24.50;65.10;;;;;;5050098;28;20189;-73
2022/05/15 11:44:14;;;;;;;10.73;2.42;;;24.20;64.60;;;;;;5048563;28;20057;-73
2022/05/15 11:46:46;;;;;;;7.93;2.47;;;24.10;63.20;;;;;;5049718;28;20037;-73
2022/05/15 11:49:14;;;;;;;10.25;2.72;;;24.20;63.60;;;;;;5039642;28;20076;-73
2022/05/15 11:51:40;;;;;;;8.05;2.75;;;24.40;63.00;;;;;;5041414;28;20032;-74
2022/05/15 11:54:10;;;;;;;8.65;2.30;;;24.60;63.60;;;;;;5050287;28;20029;-73
2022/05/15 11:56:56;;;;;;;4.90;2.30;;;24.80;63.60;;;;;;5049799;28;20100;-73
2022/05/15 11:59:32;;;;;;;10.15;2.80;;;25.00;63.20;;;;;;5045939;28;20032;-74
2022/05/15 12:02:21;;;;;;;10.48;2.60;;;25.10;61.10;;;;;;5048514;28;20055;-74
2022/05/15 12:04:54;;;;;;;7.97;2.75;;;25.20;62.30;;;;;;5029346;28;20380;-74
2022/05/15 12:07:31;;;;;;;9.15;2.92;;;25.00;64.20;;;;;;5044875;28;20029;-74
2022/05/15 12:09:58;;;;;;;8.68;2.65;;;24.70;64.50;;;;;;5045573;28;20484;-74
2022/05/15 12:12:32;;;;;;;12.02;2.30;;;24.70;62.60;;;;;;5049616;28;20032;-74
2022/05/15 12:15:13;;;;;;;7.32;2.53;;;24.70;64.60;;;;;;5048941;28;20700;-74
2022/05/15 12:17:50;;;;;;;8.25;2.67;;;24.80;61.80;;;;;;5046932;28;20445;-73
2022/05/15 12:20:21;;;;;;;5.43;2.53;;;24.70;63.90;;;;;;5045722;28;20583;-74
2022/05/15 12:23:02;;;;;;;7.30;2.60;;;24.80;60.40;;;;;;5045956;28;20063;-73
2022/05/15 12:25:33;;;;;;;9.35;2.28;;;25.00;59.80;;;;;;5048352;28;20051;-74
2022/05/15 12:30:52;;;;;;;10.93;2.57;;;25.20;58.30;;;;;;5048421;28;20043;-73
2022/05/15 12:33:27;;;;;;;6.35;2.17;;;25.40;57.60;;;;;;5049165;28;20028;-73
2022/05/15 12:35:54;;;;;;;8.88;2.30;;;25.50;58.30;;;;;;5049210;28;20112;-73
2022/05/15 12:38:26;;;;;;;8.32;2.45;;;25.60;58.90;;;;;;5046596;28;20033;-73
2022/05/15 12:41:08;;;;;;;7.82;2.53;;;25.80;58.90;;;;;;5046555;28;20037;-73
2022/05/15 12:43:45;;;;;;;9.45;2.40;;;25.70;59.20;;;;;;5042016;28;20107;-74
2022/05/15 12:46:29;;;;;;;7.55;2.28;;;25.90;61.80;;;;;;5043308;28;20032;-74
2022/05/15 12:48:55;;;;;;;5.03;1.98;;;26.00;61.50;;;;;;5044427;28;20098;-71
2022/05/15 12:51:30;;;;;;;8.13;2.30;;;26.20;59.90;;;;;;5047326;28;20029;-71
2022/05/15 12:53:57;;;;;;;7.60;2.30;;;26.40;59.60;;;;;;5048094;28;20032;-71
2022/05/15 12:56:32;;;;;;;9.65;2.50;;;26.50;60.80;;;;;;5045046;28;20536;-71
2022/05/15 12:59:06;;;;;;;9.63;2.90;;;26.50;58.40;;;;;;5043271;28;20078;-71
2022/05/15 13:01:32;;;;;;;7.50;2.25;;;26.50;58.50;;;;;;5047686;28;20108;-72
2022/05/15 13:04:00;;;;;;;9.60;2.63;;;26.50;54.60;;;;;;5044510;28;20083;-72
2022/05/15 13:06:39;;;;;;;10.57;2.55;;;26.20;55.70;;;;;;5034745;28;21450;-70
2022/05/15 13:09:10;;;;;;;10.52;2.80;;;26.20;56.20;;;;;;5040647;28;20055;-70
2022/05/15 13:11:38;;;;;;;5.80;2.28;;;26.00;56.30;;;;;;5042858;28;20504;-71
2022/05/15 13:14:05;;;;;;;7.78;2.60;;;;;;;;;;5055745;28;20476;-71
2022/05/15 13:16:34;;;;;;;7.57;2.40;;;26.10;53.10;;;;;;5049319;28;20563;-71
2022/05/15 13:19:00;;;;;;;13.05;2.35;;;26.20;53.70;;;;;;5044237;28;20500;-71
2022/05/15 13:21:37;;;;;;;8.70;2.50;;;26.30;78.10;;;;;;5045921;28;20520;-71
2022/05/15 13:24:06;;;;;;;9.35;2.72;;;26.20;70.20;;;;;;5039015;28;20504;-71
2022/05/15 13:26:45;;;;;;;9.45;2.72;;;26.20;72.90;;;;;;5060329;28;20024;-71